createdAt,value
2022-09-12T00:01:43.493Z,70.10
2022-09-12T00:06:45.920Z,69.50
2022-09-12T00:11:49.991Z,69.90
2022-09-12T00:16:52.614Z,71.10
2022-09-12T00:21:55.298Z,71.10
2022-09-12T00:26:59.302Z,71.30
2022-09-12T00:32:02.193Z,72.40
2022-09-12T00:37:04.901Z,73.00
2022-09-12T00:42:10.548Z,73.40
2022-09-12T00:47:21.195Z,74.00
2022-09-12T00:52:29.722Z,75.30
2022-09-12T00:57:36.760Z,74.60
2022-09-12T01:02:39.219Z,74.50
2022-09-12T01:07:41.922Z,74.20
2022-09-12T01:12:46.551Z,75.30
2022-09-12T01:18:02.120Z,75.30
2022-09-12T01:23:30.780Z,75.60
2022-09-12T01:28:59.984Z,77.00
2022-09-12T01:34:16.658Z,77.00
2022-09-12T01:39:29.874Z,76.30
2022-09-12T01:44:40.221Z,77.40
2022-09-12T01:49:52.460Z,78.50
2022-09-12T01:55:03.082Z,77.80
2022-09-12T02:00:11.758Z,77.20
2022-09-12T02:05:19.552Z,77.40
2022-09-12T02:10:27.185Z,78.30
2022-09-12T02:15:38.318Z,77.30
2022-09-12T02:20:48.424Z,77.60
2022-09-12T02:25:56.319Z,78.60
2022-09-12T02:31:05.536Z,78.50
2022-09-12T02:36:16.902Z,78.50
2022-09-12T02:41:20.901Z,78.60
2022-09-12T02:46:27.345Z,78.00
2022-09-12T02:51:31.664Z,79.20
2022-09-12T02:56:34.251Z,79.20
2022-09-12T03:01:50.513Z,78.40
2022-09-12T03:07:09.999Z,79.20
2022-09-12T03:12:25.644Z,79.40
2022-09-12T03:17:38.133Z,79.60
2022-09-12T03:22:51.198Z,78.80
2022-09-12T03:27:59.191Z,78.90
2022-09-12T03:33:03.324Z,78.90
2022-09-12T03:38:07.746Z,78.70
2022-09-12T03:43:10.856Z,79.30
2022-09-12T03:48:13.305Z,79.10
2022-09-12T03:53:17.675Z,79.00
2022-09-12T03:58:19.926Z,79.20
2022-09-12T04:03:22.354Z,79.00
2022-09-12T04:08:26.066Z,78.90
2022-09-12T04:13:28.498Z,78.90
2022-09-12T04:18:31.363Z,79.00
2022-09-12T04:23:35.706Z,79.00
2022-09-12T04:28:39.424Z,79.10
2022-09-12T04:33:42.131Z,79.20
2022-09-12T04:38:47.763Z,79.70
2022-09-12T04:43:54.162Z,79.40
2022-09-12T04:48:57.293Z,79.70
2022-09-12T04:54:03.783Z,79.60
2022-09-12T04:59:06.627Z,80.00
2022-09-12T05:04:11.241Z,79.70
2022-09-12T05:09:15.556Z,79.70
2022-09-12T05:14:18.154Z,79.80
2022-09-12T05:19:21.335Z,79.80
2022-09-12T05:24:25.161Z,79.80
2022-09-12T05:29:27.702Z,80.00
2022-09-12T05:34:30.243Z,80.50
2022-09-12T05:39:34.187Z,80.90
2022-09-12T05:44:36.830Z,81.00
2022-09-12T05:49:39.093Z,80.60
2022-09-12T05:54:42.762Z,80.10
2022-09-12T05:59:45.037Z,79.20
2022-09-12T06:04:47.541Z,78.40
2022-09-12T06:09:51.375Z,77.80
2022-09-12T06:14:53.657Z,77.40
2022-09-12T06:19:56.049Z,76.60
2022-09-12T06:24:59.742Z,75.40
2022-09-12T06:30:02.261Z,74.10
2022-09-12T06:35:05.395Z,72.80
2022-09-12T06:40:12.940Z,72.00
2022-09-12T06:45:15.567Z,71.50
2022-09-12T06:50:18.107Z,71.00
2022-09-12T06:55:25.837Z,70.30
2022-09-12T07:00:30.405Z,69.10
2022-09-12T07:05:34.772Z,68.50
2022-09-12T07:10:38.959Z,68.70
2022-09-12T07:15:41.670Z,69.30
2022-09-12T07:20:44.333Z,70.20
2022-09-12T07:25:55.062Z,71.30
2022-09-12T07:30:58.198Z,71.90
2022-09-12T07:36:02.412Z,72.00
2022-09-12T07:41:13.843Z,72.30
2022-09-12T07:46:16.793Z,73.20
2022-09-12T07:51:20.165Z,73.00
2022-09-12T07:56:29.893Z,73.40
2022-09-12T08:01:33.994Z,73.70
2022-09-12T08:06:36.654Z,73.70
2022-09-12T08:11:40.975Z,74.00
2022-09-12T08:16:43.871Z,74.20
2022-09-12T08:21:46.418Z,74.20
2022-09-12T08:26:50.457Z,74.00
2022-09-12T08:31:57.041Z,74.30
2022-09-12T08:36:59.813Z,74.30
2022-09-12T08:42:05.473Z,73.80
2022-09-12T08:47:22.615Z,73.60
2022-09-12T08:52:27.832Z,73.60
2022-09-12T08:57:32.306Z,73.20
2022-09-12T09:03:16.760Z,73.00
2022-09-12T09:08:42.680Z,73.00
2022-09-12T09:14:04.490Z,73.10
2022-09-12T09:19:15.496Z,73.20
2022-09-12T09:24:22.234Z,72.80
2022-09-12T09:29:32.383Z,73.00
2022-09-12T09:34:35.420Z,73.40
2022-09-12T09:39:50.527Z,73.70
2022-09-12T09:44:59.484Z,72.70
2022-09-12T09:50:01.964Z,71.60
2022-09-12T09:55:12.871Z,70.50
2022-09-12T10:00:29.610Z,69.40
2022-09-12T10:05:34.588Z,68.80
2022-09-12T10:10:37.137Z,69.60
2022-09-12T10:15:57.257Z,67.80
2022-09-12T10:21:00.942Z,66.00
2022-09-12T10:26:08.730Z,65.80
2022-09-12T10:31:17.874Z,65.00
2022-09-12T10:36:21.177Z,64.90
2022-09-12T10:41:24.883Z,65.80
2022-09-12T10:46:32.239Z,65.80
2022-09-12T10:51:35.790Z,65.50
2022-09-12T10:56:45.309Z,66.00
2022-09-12T11:01:52.929Z,65.00
2022-09-12T11:07:15.950Z,63.30
2022-09-12T11:12:27.196Z,61.80
2022-09-12T11:17:44.760Z,60.00
2022-09-12T11:23:06.185Z,59.60
2022-09-12T11:28:29.161Z,59.40
2022-09-12T11:33:43.309Z,59.20
2022-09-12T11:39:01.985Z,60.00
2022-09-12T11:44:14.823Z,60.00
2022-09-12T11:49:32.299Z,60.10
2022-09-12T11:54:43.345Z,59.20
2022-09-12T11:59:52.215Z,57.80
2022-09-12T12:05:18.161Z,56.30
2022-09-12T12:10:39.851Z,55.00
2022-09-12T12:15:48.793Z,55.70
2022-09-12T12:20:55.658Z,55.90
2022-09-12T12:26:00.396Z,55.50
2022-09-12T12:31:03.596Z,55.50
2022-09-12T12:36:09.893Z,53.80
2022-09-12T12:41:43.734Z,52.10
2022-09-12T12:47:15.893Z,49.60
2022-09-12T12:52:20.773Z,50.60
2022-09-12T12:57:57.005Z,51.40
2022-09-12T13:03:00.987Z,51.70
2022-09-12T13:08:08.877Z,53.60
2022-09-12T13:13:24.045Z,50.90
2022-09-12T13:18:30.729Z,50.80
2022-09-12T13:23:35.375Z,50.50
2022-09-12T13:28:38.378Z,50.80
2022-09-12T13:33:45.928Z,51.50
2022-09-12T13:39:06.167Z,51.10
2022-09-12T13:44:12.492Z,51.00
2022-09-12T13:49:22.341Z,50.90
2022-09-12T13:54:27.169Z,50.50
2022-09-12T13:59:38.937Z,51.20
2022-09-12T14:04:41.825Z,50.80
2022-09-12T14:09:53.202Z,51.40
2022-09-12T14:14:56.207Z,51.00
2022-09-12T14:20:00.938Z,51.40
2022-09-12T14:25:07.864Z,51.30
2022-09-12T14:30:23.124Z,52.00
2022-09-12T14:35:43.477Z,51.40
2022-09-12T14:41:12.150Z,51.60
2022-09-12T14:46:22.316Z,51.50
2022-09-12T14:51:28.557Z,51.80
2022-09-12T14:56:54.075Z,51.90
2022-09-12T15:02:21.986Z,51.70
2022-09-12T15:07:37.170Z,51.40
2022-09-12T15:12:44.439Z,52.00
2022-09-12T15:17:47.110Z,52.10
2022-09-12T15:22:50.220Z,52.40
2022-09-12T15:27:54.807Z,52.10
2022-09-12T15:32:57.728Z,52.20
2022-09-12T15:38:00.275Z,52.40
2022-09-12T15:43:17.511Z,52.80
2022-09-12T15:48:20.473Z,52.50
2022-09-12T15:53:23.845Z,52.70
2022-09-12T15:58:28.350Z,52.40
2022-09-12T16:03:33.906Z,52.10
2022-09-12T16:08:57.140Z,52.30
2022-09-12T16:14:01.244Z,52.00
2022-09-12T16:19:18.410Z,52.40
2022-09-12T16:24:21.620Z,52.60
2022-09-12T16:29:25.818Z,52.80
2022-09-12T16:34:28.801Z,53.60
2022-09-12T16:39:39.964Z,53.80
2022-09-12T16:44:44.063Z,53.90
2022-09-12T16:49:46.769Z,54.20
2022-09-12T16:54:49.334Z,54.30
2022-09-12T16:59:54.247Z,54.50
2022-09-12T17:05:10.194Z,54.50
2022-09-12T17:10:12.917Z,54.60
2022-09-12T17:15:17.341Z,54.80
2022-09-12T17:20:20.688Z,55.10
2022-09-12T17:25:23.341Z,55.30
2022-09-12T17:30:45.217Z,55.60
2022-09-12T17:35:47.798Z,55.70
2022-09-12T17:40:59.393Z,56.00
2022-09-12T17:46:10.933Z,56.10
2022-09-12T17:51:18.223Z,56.70
2022-09-12T17:56:20.775Z,57.10
2022-09-12T18:01:26.120Z,57.40
2022-09-12T18:06:52.668Z,57.90
2022-09-12T18:11:55.883Z,58.20
2022-09-12T18:17:05.513Z,58.20
2022-09-12T18:22:08.377Z,58.70
2022-09-12T18:27:16.884Z,58.80
2022-09-12T18:32:21.445Z,59.90
2022-09-12T18:37:30.478Z,59.60
2022-09-12T18:43:14.746Z,60.10
2022-09-12T18:48:25.696Z,60.70
2022-09-12T18:53:30.516Z,61.40
2022-09-12T18:58:33.005Z,60.80
2022-09-12T19:03:37.570Z,60.70
2022-09-12T19:08:40.367Z,61.20
2022-09-12T19:13:44.771Z,61.50
2022-09-12T19:19:00.165Z,61.50
2022-09-12T19:24:34.297Z,62.60
2022-09-12T19:29:36.882Z,63.10
2022-09-12T19:34:51.337Z,62.50
2022-09-12T19:40:12.077Z,63.30
2022-09-12T19:45:46.340Z,63.40
2022-09-12T19:50:53.228Z,63.50
2022-09-12T19:56:31.630Z,63.30
2022-09-12T20:01:44.708Z,64.00
2022-09-12T20:06:48.914Z,63.80
2022-09-12T20:11:56.567Z,63.60
2022-09-12T20:17:03.959Z,64.00
2022-09-12T20:22:08.077Z,63.90
2022-09-12T20:27:10.529Z,63.90
2022-09-12T20:32:13.131Z,63.90
2022-09-12T20:37:17.234Z,64.20
2022-09-12T20:42:19.559Z,64.40
2022-09-12T20:47:22.007Z,64.20
2022-09-12T20:52:25.754Z,64.50
2022-09-12T20:57:28.106Z,64.70
2022-09-12T21:02:30.528Z,64.70
2022-09-12T21:07:34.306Z,65.00
2022-09-12T21:12:36.611Z,65.30
2022-09-12T21:17:39.061Z,65.50
2022-09-12T21:22:42.994Z,65.80
2022-09-12T21:27:45.408Z,66.40
2022-09-12T21:32:47.653Z,66.20
2022-09-12T21:37:53.612Z,66.70
2022-09-12T21:42:56.323Z,67.40
2022-09-12T21:47:59.129Z,67.10
2022-09-12T21:53:03.055Z,67.30
2022-09-12T21:58:05.391Z,67.50
2022-09-12T22:03:07.999Z,67.70
2022-09-12T22:08:12.167Z,67.70
2022-09-12T22:13:14.514Z,68.10
2022-09-12T22:18:16.794Z,68.30
2022-09-12T22:23:24.635Z,68.20
2022-09-12T22:28:27.469Z,68.60
2022-09-12T22:33:29.844Z,68.20
2022-09-12T22:38:33.837Z,68.40
2022-09-12T22:43:37.081Z,69.00
2022-09-12T22:48:39.643Z,69.30
2022-09-12T22:53:43.658Z,69.50
2022-09-12T22:58:45.941Z,70.10
2022-09-12T23:03:48.304Z,70.10
2022-09-12T23:08:52.363Z,70.30
2022-09-12T23:13:54.701Z,70.70
2022-09-12T23:18:56.904Z,70.70
2022-09-12T23:24:00.644Z,71.00
2022-09-12T23:29:04.044Z,71.60
2022-09-12T23:34:06.594Z,71.80
2022-09-12T23:39:11.053Z,71.90
2022-09-12T23:44:13.382Z,72.30
2022-09-12T23:49:15.629Z,72.40
2022-09-12T23:54:19.431Z,72.40
2022-09-12T23:59:22.030Z,72.90
